CLT TRACON Summary / KCLT TAF
CLT TRACON Summary:
High pressure will continue shift east of the CLT TRACON today. Expect VFR conditions to prevail with SCT/BKN100-150. Surface winds will be northeast at 4-8kts. Expect 20-40kt compression winds between downwind and final approach in North operations. Flight Hazards in the TRACON airspace: LGT-MOD rime icing above 090.

Updated:2/14/2016 6:08 AM
CLT Terminal Aerodrome Forecast:

FTUS80 KCLT 141127 RRA
KCLT 141125Z 1412/1512 07006KT P6SM BKN100
     FM141800 11006KT P6SM BKN050 OVC100
     FM150400 10007KT P6SM OVC045 PROB30 1504/1509 4SM -SN OVC025
     FM150900 06006KT P6SM OVC045 PROB30 1509/1512 4SM -SNPL
      OVC025
CLT TRACON Area Remark:
NONE.
Convective Gate Forecast / Collaborative Convective Forecast Product / Vertical Wind Profile
Convective Gate Forecast
-->
AIRMETs & SIGMETS/ Southeast Radar loop / Satellite Image (click on image to enlarge)

Southeast Radar Loop

 



USA.gov is the U.S. government's official web portal to all federal, state and local government web resources and services.